sensor_id;sensor_type;location;lat;lon;timestamp;P1;durP1;ratioP1;P2;durP2;ratioP2
68050;SDS011;54839;51.364;7.246;2023-02-07T00:00:45;39.20;;;20.27;;
68050;SDS011;54839;51.364;7.246;2023-02-07T00:03:10;40.67;;;23.07;;
68050;SDS011;54839;51.364;7.246;2023-02-07T00:05:36;41.80;;;22.40;;
68050;SDS011;54839;51.364;7.246;2023-02-07T00:08:02;40.27;;;21.90;;
68050;SDS011;54839;51.364;7.246;2023-02-07T00:10:29;39.03;;;20.67;;
68050;SDS011;54839;51.364;7.246;2023-02-07T00:12:55;28.90;;;18.47;;
68050;SDS011;54839;51.364;7.246;2023-02-07T00:15:21;43.67;;;22.73;;
68050;SDS011;54839;51.364;7.246;2023-02-07T00:17:46;46.97;;;21.93;;
68050;SDS011;54839;51.364;7.246;2023-02-07T00:20:12;35.40;;;22.90;;
68050;SDS011;54839;51.364;7.246;2023-02-07T00:22:37;38.10;;;22.47;;
68050;SDS011;54839;51.364;7.246;2023-02-07T00:25:03;34.20;;;21.43;;
68050;SDS011;54839;51.364;7.246;2023-02-07T00:27:29;39.37;;;23.00;;
68050;SDS011;54839;51.364;7.246;2023-02-07T00:29:55;39.27;;;19.17;;
68050;SDS011;54839;51.364;7.246;2023-02-07T00:32:20;38.80;;;20.80;;
68050;SDS011;54839;51.364;7.246;2023-02-07T00:34:46;39.33;;;20.70;;
68050;SDS011;54839;51.364;7.246;2023-02-07T00:37:12;39.37;;;20.87;;
68050;SDS011;54839;51.364;7.246;2023-02-07T00:39:37;38.70;;;20.20;;
68050;SDS011;54839;51.364;7.246;2023-02-07T00:42:03;32.37;;;19.23;;
68050;SDS011;54839;51.364;7.246;2023-02-07T00:44:29;35.10;;;20.93;;
68050;SDS011;54839;51.364;7.246;2023-02-07T00:46:56;30.00;;;18.40;;
68050;SDS011;54839;51.364;7.246;2023-02-07T00:49:22;33.37;;;20.50;;
68050;SDS011;54839;51.364;7.246;2023-02-07T00:51:48;38.83;;;20.70;;
68050;SDS011;54839;51.364;7.246;2023-02-07T00:54:13;34.33;;;18.80;;
68050;SDS011;54839;51.364;7.246;2023-02-07T00:56:39;41.03;;;20.47;;
68050;SDS011;54839;51.364;7.246;2023-02-07T00:59:05;42.03;;;21.40;;
68050;SDS011;54839;51.364;7.246;2023-02-07T01:01:31;38.47;;;21.90;;
68050;SDS011;54839;51.364;7.246;2023-02-07T01:03:56;40.33;;;20.30;;
68050;SDS011;54839;51.364;7.246;2023-02-07T01:06:22;37.97;;;20.60;;
68050;SDS011;54839;51.364;7.246;2023-02-07T01:08:48;34.80;;;18.77;;
68050;SDS011;54839;51.364;7.246;2023-02-07T01:11:14;26.30;;;17.37;;
68050;SDS011;54839;51.364;7.246;2023-02-07T01:13:40;27.87;;;16.27;;
68050;SDS011;54839;51.364;7.246;2023-02-07T01:16:24;32.57;;;18.20;;
68050;SDS011;54839;51.364;7.246;2023-02-07T01:18:52;28.30;;;16.50;;
68050;SDS011;54839;51.364;7.246;2023-02-07T01:21:20;25.40;;;15.10;;
68050;SDS011;54839;51.364;7.246;2023-02-07T01:23:48;25.13;;;15.57;;
68050;SDS011;54839;51.364;7.246;2023-02-07T01:26:13;25.07;;;15.40;;
68050;SDS011;54839;51.364;7.246;2023-02-07T01:28:39;29.50;;;15.37;;
68050;SDS011;54839;51.364;7.246;2023-02-07T01:31:06;26.33;;;15.33;;
68050;SDS011;54839;51.364;7.246;2023-02-07T01:33:34;27.67;;;15.13;;
68050;SDS011;54839;51.364;7.246;2023-02-07T01:36:04;25.43;;;14.63;;
68050;SDS011;54839;51.364;7.246;2023-02-07T01:38:34;24.57;;;14.80;;
68050;SDS011;54839;51.364;7.246;2023-02-07T01:41:00;29.60;;;17.30;;
68050;SDS011;54839;51.364;7.246;2023-02-07T01:43:25;30.30;;;18.00;;
68050;SDS011;54839;51.364;7.246;2023-02-07T01:45:51;32.83;;;16.47;;
68050;SDS011;54839;51.364;7.246;2023-02-07T01:48:22;35.60;;;19.60;;
68050;SDS011;54839;51.364;7.246;2023-02-07T01:50:52;26.90;;;18.53;;
68050;SDS011;54839;51.364;7.246;2023-02-07T01:53:21;37.57;;;20.40;;
68050;SDS011;54839;51.364;7.246;2023-02-07T01:55:50;29.27;;;18.00;;
68050;SDS011;54839;51.364;7.246;2023-02-07T01:58:17;29.53;;;17.83;;
68050;SDS011;54839;51.364;7.246;2023-02-07T02:00:44;34.10;;;18.87;;
68050;SDS011;54839;51.364;7.246;2023-02-07T02:03:10;33.73;;;18.43;;
68050;SDS011;54839;51.364;7.246;2023-02-07T02:05:35;31.97;;;17.73;;
68050;SDS011;54839;51.364;7.246;2023-02-07T02:08:02;29.93;;;17.73;;
68050;SDS011;54839;51.364;7.246;2023-02-07T02:10:33;32.13;;;17.47;;
68050;SDS011;54839;51.364;7.246;2023-02-07T02:13:29;35.37;;;19.57;;
68050;SDS011;54839;51.364;7.246;2023-02-07T02:19:09;30.50;;;17.43;;
68050;SDS011;54839;51.364;7.246;2023-02-07T02:24:48;34.20;;;19.80;;
68050;SDS011;54839;51.364;7.246;2023-02-07T02:33:02;33.37;;;19.40;;
68050;SDS011;54839;51.364;7.246;2023-02-07T02:35:39;37.20;;;21.30;;
68050;SDS011;54839;51.364;7.246;2023-02-07T02:38:25;30.43;;;18.00;;
68050;SDS011;54839;51.364;7.246;2023-02-07T02:41:04;32.90;;;18.00;;
68050;SDS011;54839;51.364;7.246;2023-02-07T02:43:44;33.40;;;19.30;;
68050;SDS011;54839;51.364;7.246;2023-02-07T02:46:15;32.53;;;20.70;;
68050;SDS011;54839;51.364;7.246;2023-02-07T02:48:45;35.30;;;19.10;;
68050;SDS011;54839;51.364;7.246;2023-02-07T02:51:11;31.43;;;19.33;;
68050;SDS011;54839;51.364;7.246;2023-02-07T02:53:37;34.33;;;20.07;;
68050;SDS011;54839;51.364;7.246;2023-02-07T02:56:13;31.73;;;19.50;;
68050;SDS011;54839;51.364;7.246;2023-02-07T02:59:04;31.47;;;18.10;;
68050;SDS011;54839;51.364;7.246;2023-02-07T03:01:57;37.77;;;19.93;;
68050;SDS011;54839;51.364;7.246;2023-02-07T03:08:03;36.77;;;19.70;;
68050;SDS011;54839;51.364;7.246;2023-02-07T03:10:47;63.23;;;22.70;;
68050;SDS011;54839;51.364;7.246;2023-02-07T03:13:26;39.37;;;19.57;;
68050;SDS011;54839;51.364;7.246;2023-02-07T03:18:30;41.80;;;20.57;;
68050;SDS011;54839;51.364;7.246;2023-02-07T03:21:09;33.40;;;18.50;;
68050;SDS011;54839;51.364;7.246;2023-02-07T03:23:49;34.73;;;20.20;;
68050;SDS011;54839;51.364;7.246;2023-02-07T03:26:16;31.67;;;18.40;;
68050;SDS011;54839;51.364;7.246;2023-02-07T03:28:45;34.03;;;18.57;;
68050;SDS011;54839;51.364;7.246;2023-02-07T03:31:12;40.13;;;21.83;;
68050;SDS011;54839;51.364;7.246;2023-02-07T03:33:41;33.30;;;18.60;;
68050;SDS011;54839;51.364;7.246;2023-02-07T03:36:16;30.23;;;17.73;;
68050;SDS011;54839;51.364;7.246;2023-02-07T03:38:47;30.93;;;16.70;;
68050;SDS011;54839;51.364;7.246;2023-02-07T03:41:16;43.07;;;18.93;;
68050;SDS011;54839;51.364;7.246;2023-02-07T03:43:57;167.90;;;33.73;;
68050;SDS011;54839;51.364;7.246;2023-02-07T03:46:25;40.90;;;18.80;;
68050;SDS011;54839;51.364;7.246;2023-02-07T03:48:50;45.73;;;19.17;;
68050;SDS011;54839;51.364;7.246;2023-02-07T03:51:16;62.23;;;19.90;;
68050;SDS011;54839;51.364;7.246;2023-02-07T03:53:41;54.80;;;20.13;;
68050;SDS011;54839;51.364;7.246;2023-02-07T03:56:07;52.60;;;19.90;;
68050;SDS011;54839;51.364;7.246;2023-02-07T03:58:32;51.70;;;19.73;;
68050;SDS011;54839;51.364;7.246;2023-02-07T04:00:58;53.93;;;21.07;;
68050;SDS011;54839;51.364;7.246;2023-02-07T04:03:23;54.77;;;21.40;;
68050;SDS011;54839;51.364;7.246;2023-02-07T04:05:49;56.10;;;22.07;;
68050;SDS011;54839;51.364;7.246;2023-02-07T04:08:14;38.43;;;21.20;;
68050;SDS011;54839;51.364;7.246;2023-02-07T04:10:40;43.70;;;22.50;;
68050;SDS011;54839;51.364;7.246;2023-02-07T04:13:05;43.40;;;20.57;;
68050;SDS011;54839;51.364;7.246;2023-02-07T04:15:31;45.20;;;21.13;;
68050;SDS011;54839;51.364;7.246;2023-02-07T04:17:57;40.53;;;21.13;;
68050;SDS011;54839;51.364;7.246;2023-02-07T04:20:22;45.83;;;22.70;;
68050;SDS011;54839;51.364;7.246;2023-02-07T04:22:48;37.60;;;19.30;;
68050;SDS011;54839;51.364;7.246;2023-02-07T04:25:13;40.30;;;21.60;;
68050;SDS011;54839;51.364;7.246;2023-02-07T04:27:39;33.73;;;18.13;;
68050;SDS011;54839;51.364;7.246;2023-02-07T04:30:04;35.20;;;19.57;;
68050;SDS011;54839;51.364;7.246;2023-02-07T04:32:30;38.60;;;21.20;;
68050;SDS011;54839;51.364;7.246;2023-02-07T04:34:56;48.97;;;22.17;;
68050;SDS011;54839;51.364;7.246;2023-02-07T04:37:21;38.33;;;18.80;;
68050;SDS011;54839;51.364;7.246;2023-02-07T04:39:47;35.03;;;17.73;;
68050;SDS011;54839;51.364;7.246;2023-02-07T04:42:12;27.27;;;17.07;;
68050;SDS011;54839;51.364;7.246;2023-02-07T04:44:38;30.60;;;19.97;;
68050;SDS011;54839;51.364;7.246;2023-02-07T04:47:03;26.27;;;15.20;;
68050;SDS011;54839;51.364;7.246;2023-02-07T04:49:29;32.53;;;16.60;;
68050;SDS011;54839;51.364;7.246;2023-02-07T04:51:55;27.67;;;14.77;;
68050;SDS011;54839;51.364;7.246;2023-02-07T04:54:20;23.00;;;13.87;;
68050;SDS011;54839;51.364;7.246;2023-02-07T04:56:46;23.00;;;12.90;;
68050;SDS011;54839;51.364;7.246;2023-02-07T04:59:11;30.20;;;13.10;;
68050;SDS011;54839;51.364;7.246;2023-02-07T05:01:37;26.00;;;14.80;;
68050;SDS011;54839;51.364;7.246;2023-02-07T05:04:02;27.60;;;14.20;;
68050;SDS011;54839;51.364;7.246;2023-02-07T05:06:28;23.83;;;13.23;;
68050;SDS011;54839;51.364;7.246;2023-02-07T05:08:53;31.10;;;14.47;;
68050;SDS011;54839;51.364;7.246;2023-02-07T05:11:19;22.03;;;14.70;;
68050;SDS011;54839;51.364;7.246;2023-02-07T05:13:45;22.80;;;13.27;;
68050;SDS011;54839;51.364;7.246;2023-02-07T05:16:10;24.43;;;15.03;;
68050;SDS011;54839;51.364;7.246;2023-02-07T05:18:36;23.00;;;12.50;;
68050;SDS011;54839;51.364;7.246;2023-02-07T05:21:01;17.93;;;12.33;;
68050;SDS011;54839;51.364;7.246;2023-02-07T05:23:27;19.40;;;12.53;;
68050;SDS011;54839;51.364;7.246;2023-02-07T05:25:53;24.33;;;13.40;;
68050;SDS011;54839;51.364;7.246;2023-02-07T05:28:18;21.60;;;12.80;;
68050;SDS011;54839;51.364;7.246;2023-02-07T05:30:44;18.83;;;15.17;;
68050;SDS011;54839;51.364;7.246;2023-02-07T05:33:10;25.40;;;12.57;;
68050;SDS011;54839;51.364;7.246;2023-02-07T05:35:37;20.90;;;13.70;;
68050;SDS011;54839;51.364;7.246;2023-02-07T05:38:05;26.07;;;12.87;;
68050;SDS011;54839;51.364;7.246;2023-02-07T05:40:35;19.50;;;12.53;;
68050;SDS011;54839;51.364;7.246;2023-02-07T05:43:02;24.50;;;12.23;;
68050;SDS011;54839;51.364;7.246;2023-02-07T05:45:28;25.23;;;12.83;;
68050;SDS011;54839;51.364;7.246;2023-02-07T05:47:54;19.60;;;13.23;;
68050;SDS011;54839;51.364;7.246;2023-02-07T05:50:20;18.10;;;12.50;;
68050;SDS011;54839;51.364;7.246;2023-02-07T05:52:45;20.10;;;12.33;;
68050;SDS011;54839;51.364;7.246;2023-02-07T05:55:11;23.30;;;12.57;;
68050;SDS011;54839;51.364;7.246;2023-02-07T05:57:38;23.43;;;12.50;;
68050;SDS011;54839;51.364;7.246;2023-02-07T06:00:05;23.47;;;13.20;;
68050;SDS011;54839;51.364;7.246;2023-02-07T06:02:31;24.37;;;14.57;;
68050;SDS011;54839;51.364;7.246;2023-02-07T06:04:56;30.90;;;12.70;;
68050;SDS011;54839;51.364;7.246;2023-02-07T06:07:22;23.77;;;12.77;;
68050;SDS011;54839;51.364;7.246;2023-02-07T06:09:48;18.00;;;11.73;;
68050;SDS011;54839;51.364;7.246;2023-02-07T06:12:13;23.20;;;11.90;;
68050;SDS011;54839;51.364;7.246;2023-02-07T06:14:39;33.00;;;12.73;;
68050;SDS011;54839;51.364;7.246;2023-02-07T06:17:04;16.93;;;11.40;;
68050;SDS011;54839;51.364;7.246;2023-02-07T06:19:30;18.40;;;10.93;;
68050;SDS011;54839;51.364;7.246;2023-02-07T06:21:55;18.60;;;12.10;;
68050;SDS011;54839;51.364;7.246;2023-02-07T06:24:21;19.80;;;12.07;;
68050;SDS011;54839;51.364;7.246;2023-02-07T06:26:47;20.00;;;12.20;;
68050;SDS011;54839;51.364;7.246;2023-02-07T06:29:13;19.80;;;11.93;;
68050;SDS011;54839;51.364;7.246;2023-02-07T06:31:39;23.60;;;12.13;;
68050;SDS011;54839;51.364;7.246;2023-02-07T06:34:04;16.50;;;11.53;;
68050;SDS011;54839;51.364;7.246;2023-02-07T06:36:30;27.47;;;15.37;;
68050;SDS011;54839;51.364;7.246;2023-02-07T06:38:55;24.13;;;14.20;;
68050;SDS011;54839;51.364;7.246;2023-02-07T06:41:21;24.70;;;14.87;;
68050;SDS011;54839;51.364;7.246;2023-02-07T06:43:47;27.77;;;14.27;;
68050;SDS011;54839;51.364;7.246;2023-02-07T06:46:13;29.57;;;15.67;;
68050;SDS011;54839;51.364;7.246;2023-02-07T06:48:39;17.00;;;13.63;;
68050;SDS011;54839;51.364;7.246;2023-02-07T06:51:04;21.33;;;14.23;;
68050;SDS011;54839;51.364;7.246;2023-02-07T06:53:30;23.57;;;14.77;;
68050;SDS011;54839;51.364;7.246;2023-02-07T06:55:56;22.43;;;15.10;;
68050;SDS011;54839;51.364;7.246;2023-02-07T06:58:21;20.17;;;14.03;;
68050;SDS011;54839;51.364;7.246;2023-02-07T07:00:47;22.07;;;14.07;;
68050;SDS011;54839;51.364;7.246;2023-02-07T07:03:13;19.67;;;14.37;;
68050;SDS011;54839;51.364;7.246;2023-02-07T07:05:39;23.10;;;15.30;;
68050;SDS011;54839;51.364;7.246;2023-02-07T07:08:05;22.77;;;15.03;;
68050;SDS011;54839;51.364;7.246;2023-02-07T07:10:31;22.37;;;14.57;;
68050;SDS011;54839;51.364;7.246;2023-02-07T07:12:57;25.33;;;16.00;;
68050;SDS011;54839;51.364;7.246;2023-02-07T07:15:22;24.10;;;15.73;;
68050;SDS011;54839;51.364;7.246;2023-02-07T07:17:48;19.70;;;12.87;;
68050;SDS011;54839;51.364;7.246;2023-02-07T07:20:14;31.40;;;15.10;;
68050;SDS011;54839;51.364;7.246;2023-02-07T07:22:39;26.07;;;15.80;;
68050;SDS011;54839;51.364;7.246;2023-02-07T07:25:05;33.13;;;16.20;;
68050;SDS011;54839;51.364;7.246;2023-02-07T07:27:31;26.80;;;15.77;;
68050;SDS011;54839;51.364;7.246;2023-02-07T07:29:57;21.90;;;13.40;;
68050;SDS011;54839;51.364;7.246;2023-02-07T07:32:22;26.23;;;14.80;;
68050;SDS011;54839;51.364;7.246;2023-02-07T07:34:48;21.27;;;14.00;;
68050;SDS011;54839;51.364;7.246;2023-02-07T07:37:14;28.47;;;16.70;;
68050;SDS011;54839;51.364;7.246;2023-02-07T07:39:40;28.10;;;14.30;;
68050;SDS011;54839;51.364;7.246;2023-02-07T07:42:05;25.40;;;13.77;;
68050;SDS011;54839;51.364;7.246;2023-02-07T07:44:31;22.07;;;13.03;;
68050;SDS011;54839;51.364;7.246;2023-02-07T07:46:57;23.37;;;13.83;;
68050;SDS011;54839;51.364;7.246;2023-02-07T07:49:22;24.30;;;13.87;;
68050;SDS011;54839;51.364;7.246;2023-02-07T07:51:48;22.63;;;13.80;;
68050;SDS011;54839;51.364;7.246;2023-02-07T07:54:14;25.23;;;14.43;;
68050;SDS011;54839;51.364;7.246;2023-02-07T07:56:40;25.90;;;15.00;;
68050;SDS011;54839;51.364;7.246;2023-02-07T07:59:05;22.17;;;14.60;;
68050;SDS011;54839;51.364;7.246;2023-02-07T08:01:31;23.80;;;13.07;;
68050;SDS011;54839;51.364;7.246;2023-02-07T08:03:56;21.90;;;13.80;;
68050;SDS011;54839;51.364;7.246;2023-02-07T08:06:22;24.90;;;13.40;;
68050;SDS011;54839;51.364;7.246;2023-02-07T08:08:47;19.77;;;13.50;;
68050;SDS011;54839;51.364;7.246;2023-02-07T08:11:13;18.20;;;11.70;;
68050;SDS011;54839;51.364;7.246;2023-02-07T08:13:38;19.13;;;12.60;;
68050;SDS011;54839;51.364;7.246;2023-02-07T08:16:05;14.87;;;11.13;;
68050;SDS011;54839;51.364;7.246;2023-02-07T08:18:35;18.57;;;12.60;;
68050;SDS011;54839;51.364;7.246;2023-02-07T08:21:00;20.33;;;12.43;;
68050;SDS011;54839;51.364;7.246;2023-02-07T08:23:26;20.80;;;11.30;;
68050;SDS011;54839;51.364;7.246;2023-02-07T08:25:51;21.77;;;12.80;;
68050;SDS011;54839;51.364;7.246;2023-02-07T08:28:17;19.33;;;11.77;;
68050;SDS011;54839;51.364;7.246;2023-02-07T08:30:45;20.93;;;12.20;;
68050;SDS011;54839;51.364;7.246;2023-02-07T08:33:12;19.03;;;11.23;;
68050;SDS011;54839;51.364;7.246;2023-02-07T08:35:38;16.17;;;11.80;;
68050;SDS011;54839;51.364;7.246;2023-02-07T08:38:04;20.10;;;13.00;;
68050;SDS011;54839;51.364;7.246;2023-02-07T08:40:30;20.07;;;12.80;;
68050;SDS011;54839;51.364;7.246;2023-02-07T08:42:56;17.33;;;11.23;;
68050;SDS011;54839;51.364;7.246;2023-02-07T08:45:21;18.53;;;10.33;;
68050;SDS011;54839;51.364;7.246;2023-02-07T08:47:47;21.67;;;13.10;;
68050;SDS011;54839;51.364;7.246;2023-02-07T08:50:13;20.17;;;12.07;;
68050;SDS011;54839;51.364;7.246;2023-02-07T08:52:40;18.90;;;11.00;;
68050;SDS011;54839;51.364;7.246;2023-02-07T08:55:06;12.87;;;9.23;;
68050;SDS011;54839;51.364;7.246;2023-02-07T08:57:32;15.70;;;9.60;;
68050;SDS011;54839;51.364;7.246;2023-02-07T08:59:58;11.33;;;8.63;;
68050;SDS011;54839;51.364;7.246;2023-02-07T09:02:24;15.80;;;10.40;;
68050;SDS011;54839;51.364;7.246;2023-02-07T09:04:50;12.90;;;9.07;;
68050;SDS011;54839;51.364;7.246;2023-02-07T09:07:15;9.73;;;8.10;;
68050;SDS011;54839;51.364;7.246;2023-02-07T09:09:42;14.10;;;9.60;;
68050;SDS011;54839;51.364;7.246;2023-02-07T09:12:08;12.53;;;8.73;;
68050;SDS011;54839;51.364;7.246;2023-02-07T09:14:34;12.47;;;8.50;;
68050;SDS011;54839;51.364;7.246;2023-02-07T09:17:00;10.73;;;9.03;;
68050;SDS011;54839;51.364;7.246;2023-02-07T09:19:27;9.27;;;7.40;;
68050;SDS011;54839;51.364;7.246;2023-02-07T09:21:52;15.47;;;8.13;;
68050;SDS011;54839;51.364;7.246;2023-02-07T09:24:18;11.77;;;8.63;;
68050;SDS011;54839;51.364;7.246;2023-02-07T09:26:44;13.70;;;9.00;;
68050;SDS011;54839;51.364;7.246;2023-02-07T09:29:11;14.50;;;8.60;;
68050;SDS011;54839;51.364;7.246;2023-02-07T09:31:37;13.80;;;8.80;;
68050;SDS011;54839;51.364;7.246;2023-02-07T09:34:03;11.00;;;8.60;;
68050;SDS011;54839;51.364;7.246;2023-02-07T09:36:29;17.70;;;8.93;;
68050;SDS011;54839;51.364;7.246;2023-02-07T09:38:56;9.80;;;7.50;;
68050;SDS011;54839;51.364;7.246;2023-02-07T09:41:28;14.23;;;9.37;;
68050;SDS011;54839;51.364;7.246;2023-02-07T09:44:11;13.07;;;7.23;;
68050;SDS011;54839;51.364;7.246;2023-02-07T09:46:42;13.80;;;8.77;;
68050;SDS011;54839;51.364;7.246;2023-02-07T09:49:14;11.60;;;8.77;;
68050;SDS011;54839;51.364;7.246;2023-02-07T09:51:55;8.20;;;6.83;;
68050;SDS011;54839;51.364;7.246;2023-02-07T09:54:24;13.13;;;7.80;;
68050;SDS011;54839;51.364;7.246;2023-02-07T09:56:58;14.80;;;7.17;;
68050;SDS011;54839;51.364;7.246;2023-02-07T09:59:28;10.10;;;6.87;;
68050;SDS011;54839;51.364;7.246;2023-02-07T10:02:50;10.27;;;7.10;;
68050;SDS011;54839;51.364;7.246;2023-02-07T10:05:18;14.60;;;9.47;;
68050;SDS011;54839;51.364;7.246;2023-02-07T10:07:50;10.90;;;7.50;;
68050;SDS011;54839;51.364;7.246;2023-02-07T10:10:23;8.80;;;7.13;;
68050;SDS011;54839;51.364;7.246;2023-02-07T10:13:18;9.70;;;8.53;;
68050;SDS011;54839;51.364;7.246;2023-02-07T10:18:59;6.63;;;5.80;;
68050;SDS011;54839;51.364;7.246;2023-02-07T10:21:50;9.20;;;6.80;;
68050;SDS011;54839;51.364;7.246;2023-02-07T10:27:12;9.10;;;6.17;;
68050;SDS011;54839;51.364;7.246;2023-02-07T10:32:47;7.80;;;6.67;;
68050;SDS011;54839;51.364;7.246;2023-02-07T10:35:15;9.17;;;7.13;;
68050;SDS011;54839;51.364;7.246;2023-02-07T10:37:44;8.07;;;6.17;;
68050;SDS011;54839;51.364;7.246;2023-02-07T10:40:25;9.37;;;7.20;;
68050;SDS011;54839;51.364;7.246;2023-02-07T10:42:58;9.60;;;8.40;;
68050;SDS011;54839;51.364;7.246;2023-02-07T10:45:28;10.43;;;7.37;;
68050;SDS011;54839;51.364;7.246;2023-02-07T10:47:54;8.87;;;7.13;;
68050;SDS011;54839;51.364;7.246;2023-02-07T10:50:20;11.40;;;7.67;;
68050;SDS011;54839;51.364;7.246;2023-02-07T10:52:54;17.00;;;9.10;;
68050;SDS011;54839;51.364;7.246;2023-02-07T10:55:35;15.87;;;7.67;;
68050;SDS011;54839;51.364;7.246;2023-02-07T10:58:04;12.30;;;7.50;;
68050;SDS011;54839;51.364;7.246;2023-02-07T11:00:30;10.00;;;7.73;;
68050;SDS011;54839;51.364;7.246;2023-02-07T11:03:03;9.57;;;6.53;;
68050;SDS011;54839;51.364;7.246;2023-02-07T11:05:32;19.43;;;7.20;;
68050;SDS011;54839;51.364;7.246;2023-02-07T11:08:33;17.00;;;7.70;;
68050;SDS011;54839;51.364;7.246;2023-02-07T11:10:53;11.20;;;7.27;;
68050;SDS011;54839;51.364;7.246;2023-02-07T11:13:22;14.73;;;7.13;;
68050;SDS011;54839;51.364;7.246;2023-02-07T11:15:53;7.93;;;5.97;;
68050;SDS011;54839;51.364;7.246;2023-02-07T11:18:27;10.57;;;6.60;;
68050;SDS011;54839;51.364;7.246;2023-02-07T11:21:05;8.10;;;6.80;;
68050;SDS011;54839;51.364;7.246;2023-02-07T11:23:45;13.60;;;7.30;;
68050;SDS011;54839;51.364;7.246;2023-02-07T11:26:11;18.77;;;9.00;;
68050;SDS011;54839;51.364;7.246;2023-02-07T11:28:40;13.07;;;6.80;;
68050;SDS011;54839;51.364;7.246;2023-02-07T11:31:06;9.80;;;8.20;;
68050;SDS011;54839;51.364;7.246;2023-02-07T11:33:35;11.23;;;6.40;;
68050;SDS011;54839;51.364;7.246;2023-02-07T11:38:38;7.33;;;5.67;;
68050;SDS011;54839;51.364;7.246;2023-02-07T11:41:17;7.60;;;6.80;;
68050;SDS011;54839;51.364;7.246;2023-02-07T11:46:38;9.33;;;5.97;;
68050;SDS011;54839;51.364;7.246;2023-02-07T11:49:06;9.50;;;6.73;;
68050;SDS011;54839;51.364;7.246;2023-02-07T11:51:52;9.07;;;7.47;;
68050;SDS011;54839;51.364;7.246;2023-02-07T11:54:20;7.90;;;7.10;;
68050;SDS011;54839;51.364;7.246;2023-02-07T11:56:50;9.23;;;7.40;;
68050;SDS011;54839;51.364;7.246;2023-02-07T11:59:18;13.43;;;7.97;;
68050;SDS011;54839;51.364;7.246;2023-02-07T12:01:49;11.50;;;7.40;;
68050;SDS011;54839;51.364;7.246;2023-02-07T12:04:19;11.30;;;7.83;;
68050;SDS011;54839;51.364;7.246;2023-02-07T12:07:02;10.83;;;7.73;;
68050;SDS011;54839;51.364;7.246;2023-02-07T12:09:40;16.20;;;7.97;;
68050;SDS011;54839;51.364;7.246;2023-02-07T12:15:11;8.10;;;6.50;;
68050;SDS011;54839;51.364;7.246;2023-02-07T12:17:48;13.20;;;6.80;;
68050;SDS011;54839;51.364;7.246;2023-02-07T12:23:19;9.70;;;7.07;;
68050;SDS011;54839;51.364;7.246;2023-02-07T12:26:52;14.90;;;7.40;;
68050;SDS011;54839;51.364;7.246;2023-02-07T12:37:13;13.17;;;8.23;;
68050;SDS011;54839;51.364;7.246;2023-02-07T12:42:59;8.33;;;7.50;;
68050;SDS011;54839;51.364;7.246;2023-02-07T12:51:07;22.40;;;8.63;;
68050;SDS011;54839;51.364;7.246;2023-02-07T12:56:21;15.90;;;7.40;;
68050;SDS011;54839;51.364;7.246;2023-02-07T13:04:07;9.40;;;7.47;;
68050;SDS011;54839;51.364;7.246;2023-02-07T13:12:17;9.03;;;7.23;;
68050;SDS011;54839;51.364;7.246;2023-02-07T13:22:52;10.10;;;6.93;;
68050;SDS011;54839;51.364;7.246;2023-02-07T13:25:28;12.03;;;6.03;;
68050;SDS011;54839;51.364;7.246;2023-02-07T13:27:59;10.13;;;6.13;;
68050;SDS011;54839;51.364;7.246;2023-02-07T13:30:30;8.47;;;6.30;;
68050;SDS011;54839;51.364;7.246;2023-02-07T13:32:58;19.67;;;7.30;;
68050;SDS011;54839;51.364;7.246;2023-02-07T13:35:31;14.13;;;6.10;;
68050;SDS011;54839;51.364;7.246;2023-02-07T13:40:49;13.50;;;7.67;;
68050;SDS011;54839;51.364;7.246;2023-02-07T13:43:37;9.53;;;6.80;;
68050;SDS011;54839;51.364;7.246;2023-02-07T13:46:48;8.57;;;5.73;;
68050;SDS011;54839;51.364;7.246;2023-02-07T13:52:33;8.00;;;5.87;;
68050;SDS011;54839;51.364;7.246;2023-02-07T13:55:30;10.47;;;6.37;;
68050;SDS011;54839;51.364;7.246;2023-02-07T13:58:01;12.23;;;6.67;;
68050;SDS011;54839;51.364;7.246;2023-02-07T14:03:21;8.97;;;6.30;;
68050;SDS011;54839;51.364;7.246;2023-02-07T14:11:57;7.63;;;6.47;;
68050;SDS011;54839;51.364;7.246;2023-02-07T14:14:31;7.40;;;6.70;;
68050;SDS011;54839;51.364;7.246;2023-02-07T14:17:02;9.07;;;6.40;;
68050;SDS011;54839;51.364;7.246;2023-02-07T14:25:18;19.40;;;6.80;;
68050;SDS011;54839;51.364;7.246;2023-02-07T14:28:07;12.77;;;7.07;;
68050;SDS011;54839;51.364;7.246;2023-02-07T14:33:20;6.93;;;6.23;;
68050;SDS011;54839;51.364;7.246;2023-02-07T14:38:40;12.60;;;6.20;;
68050;SDS011;54839;51.364;7.246;2023-02-07T14:41:26;15.37;;;6.17;;
68050;SDS011;54839;51.364;7.246;2023-02-07T14:43:55;6.43;;;5.43;;
68050;SDS011;54839;51.364;7.246;2023-02-07T14:46:26;11.77;;;6.43;;
68050;SDS011;54839;51.364;7.246;2023-02-07T14:49:03;8.80;;;6.47;;
68050;SDS011;54839;51.364;7.246;2023-02-07T14:51:46;11.37;;;6.53;;
68050;SDS011;54839;51.364;7.246;2023-02-07T15:10:31;8.00;;;6.93;;
68050;SDS011;54839;51.364;7.246;2023-02-07T15:12:58;12.37;;;9.30;;
68050;SDS011;54839;51.364;7.246;2023-02-07T15:15:26;9.67;;;7.80;;
68050;SDS011;54839;51.364;7.246;2023-02-07T15:18:08;10.77;;;8.13;;
68050;SDS011;54839;51.364;7.246;2023-02-07T15:20:37;9.37;;;7.53;;
68050;SDS011;54839;51.364;7.246;2023-02-07T15:23:04;9.23;;;6.97;;
68050;SDS011;54839;51.364;7.246;2023-02-07T15:25:33;9.60;;;6.83;;
68050;SDS011;54839;51.364;7.246;2023-02-07T15:28:04;13.23;;;7.40;;
68050;SDS011;54839;51.364;7.246;2023-02-07T15:30:31;6.87;;;6.17;;
68050;SDS011;54839;51.364;7.246;2023-02-07T15:32:57;7.60;;;6.80;;
68050;SDS011;54839;51.364;7.246;2023-02-07T15:35:28;14.90;;;8.73;;
68050;SDS011;54839;51.364;7.246;2023-02-07T15:38:14;10.90;;;6.20;;
68050;SDS011;54839;51.364;7.246;2023-02-07T15:40:40;8.60;;;6.10;;
68050;SDS011;54839;51.364;7.246;2023-02-07T15:43:18;9.73;;;7.13;;
68050;SDS011;54839;51.364;7.246;2023-02-07T15:48:23;11.43;;;7.73;;
68050;SDS011;54839;51.364;7.246;2023-02-07T15:50:52;13.90;;;7.30;;
68050;SDS011;54839;51.364;7.246;2023-02-07T15:53:23;9.53;;;7.50;;
68050;SDS011;54839;51.364;7.246;2023-02-07T15:55:51;7.40;;;6.50;;
68050;SDS011;54839;51.364;7.246;2023-02-07T15:58:22;15.77;;;7.63;;
68050;SDS011;54839;51.364;7.246;2023-02-07T16:00:57;8.43;;;6.90;;
68050;SDS011;54839;51.364;7.246;2023-02-07T16:03:29;8.83;;;6.20;;
68050;SDS011;54839;51.364;7.246;2023-02-07T16:08:38;14.50;;;8.60;;
68050;SDS011;54839;51.364;7.246;2023-02-07T16:13:48;11.83;;;7.57;;
68050;SDS011;54839;51.364;7.246;2023-02-07T16:16:17;12.27;;;7.97;;
68050;SDS011;54839;51.364;7.246;2023-02-07T16:18:46;11.00;;;6.00;;
68050;SDS011;54839;51.364;7.246;2023-02-07T16:21:16;8.50;;;7.63;;
68050;SDS011;54839;51.364;7.246;2023-02-07T16:23:45;9.73;;;7.53;;
68050;SDS011;54839;51.364;7.246;2023-02-07T16:26:13;10.70;;;6.87;;
68050;SDS011;54839;51.364;7.246;2023-02-07T16:28:41;7.20;;;6.57;;
68050;SDS011;54839;51.364;7.246;2023-02-07T16:31:08;15.13;;;7.97;;
68050;SDS011;54839;51.364;7.246;2023-02-07T16:33:33;13.20;;;7.20;;
68050;SDS011;54839;51.364;7.246;2023-02-07T16:35:59;10.40;;;7.37;;
68050;SDS011;54839;51.364;7.246;2023-02-07T16:38:24;9.73;;;7.13;;
68050;SDS011;54839;51.364;7.246;2023-02-07T16:40:50;11.20;;;7.47;;
68050;SDS011;54839;51.364;7.246;2023-02-07T16:43:34;15.33;;;8.53;;
68050;SDS011;54839;51.364;7.246;2023-02-07T16:46:02;17.30;;;8.27;;
68050;SDS011;54839;51.364;7.246;2023-02-07T16:48:28;14.10;;;7.10;;